Time,TemperatureF,DewpointF,PressureIn,WindDirection,WindDirectionDegrees,WindSpeedMPH,WindSpeedGustMPH,Humidity,HourlyPrecipIn,Conditions,Clouds,dailyrainin,SolarRadiationWatts/m^2,SoftwareType,DateUTC
2014-02-14 00:03:00,54.6,50.5,30.10,SE,133,5.8,5.8,86,0.00,,,0.00,0.0,WeatherDisplay:10.37,2014-02-14 08:03:00,
2014-02-14 00:08:00,54.6,50.5,30.10,SE,136,4.6,4.6,86,0.00,,,0.00,0.0,WeatherDisplay:10.37,2014-02-14 08:08:00,
2014-02-14 00:13:00,54.6,50.5,30.10,SE,136,2.0,2.0,86,0.00,,,0.00,0.0,WeatherDisplay:10.37,2014-02-14 08:13:00,
2014-02-14 00:18:00,54.6,50.5,30.10,SE,133,5.8,5.8,86,0.00,,,0.00,0.0,WeatherDisplay:10.37,2014-02-14 08:18:00,
2014-02-14 00:23:00,54.7,50.6,30.10,SE,126,1.2,0.0,86,0.00,,,0.00,0.0,WeatherDisplay:10.37,2014-02-14 08:23:00,
2014-02-14 00:28:00,54.6,50.5,30.10,SE,136,6.9,6.9,86,0.00,,,0.00,0.0,WeatherDisplay:10.37,2014-02-14 08:28:00,
2014-02-14 00:33:00,54.5,50.4,30.10,SE,141,4.6,4.6,86,0.00,,,0.00,0.0,WeatherDisplay:10.37,2014-02-14 08:33:00,
2014-02-14 00:38:00,54.5,51.3,30.10,SE,125,4.6,4.6,89,0.00,,,0.00,0.0,WeatherDisplay:10.37,2014-02-14 08:38:00,
2014-02-14 00:43:00,54.5,51.3,30.10,ESE,122,4.6,4.6,89,0.00,OVC,,0.00,0.0,WeatherDisplay:10.37,2014-02-14 08:43:00,
2014-02-14 00:48:00,54.5,50.4,30.10,ESE,123,3.5,3.5,86,0.00,OVC,,0.00,0.0,WeatherDisplay:10.37,2014-02-14 08:48:00,
2014-02-14 00:53:00,54.4,50.3,30.10,SE,137,3.5,0.0,86,0.00,OVC,,0.00,0.0,WeatherDisplay:10.37,2014-02-14 08:53:00,
2014-02-14 00:58:00,54.4,50.3,30.10,SSE,157,4.0,4.0,86,0.00,OVC,,0.00,0.0,WeatherDisplay:10.37,2014-02-14 08:58:00,
2014-02-14 01:03:00,54.2,50.1,30.10,SSE,155,4.6,4.6,86,0.00,OVC,,0.00,0.0,WeatherDisplay:10.37,2014-02-14 09:03:00,
2014-02-14 01:08:00,54.2,50.1,30.10,SSE,157,3.5,3.5,86,0.00,OVC,,0.00,0.0,WeatherDisplay:10.37,2014-02-14 09:08:00,
2014-02-14 01:13:00,54.0,49.9,30.10,SSE,149,4.0,4.0,86,0.00,OVC,,0.00,0.0,WeatherDisplay:10.37,2014-02-14 09:13:00,
2014-02-14 01:18:00,53.9,49.8,30.10,SSE,149,4.6,4.6,86,0.00,OVC,,0.00,0.0,WeatherDisplay:10.37,2014-02-14 09:18:00,
2014-02-14 01:23:00,53.9,49.8,30.10,SSE,149,3.5,3.5,86,0.00,,,0.00,0.0,WeatherDisplay:10.37,2014-02-14 09:23:00,
2014-02-14 01:28:00,53.9,50.1,30.10,SSE,148,4.6,4.6,87,0.00,,,0.00,0.0,WeatherDisplay:10.37,2014-02-14 09:28:00,
2014-02-14 01:33:00,54.0,50.2,30.10,SSE,148,2.0,2.0,87,0.00,,,0.00,0.0,WeatherDisplay:10.37,2014-02-14 09:33:00,
2014-02-14 01:38:00,53.9,50.1,30.10,SSE,148,0.0,0.1,87,0.00,,,0.00,0.0,WeatherDisplay:10.37,2014-02-14 09:38:00,
2014-02-14 01:43:00,54.0,50.2,30.10,SSE,148,0.0,0.0,87,0.00,,,0.00,0.0,WeatherDisplay:10.37,2014-02-14 09:43:00,
2014-02-14 01:49:00,54.0,50.2,30.10,SSE,148,2.3,2.3,87,0.00,,,0.00,0.0,WeatherDisplay:10.37,2014-02-14 09:49:00,
2014-02-14 01:54:00,54.1,50.3,30.10,SSE,148,0.0,0.0,87,0.00,,,0.00,0.0,WeatherDisplay:10.37,2014-02-14 09:54:00,
2014-02-14 01:59:00,54.1,50.3,30.10,SSE,148,3.5,3.5,87,0.00,,,0.00,0.0,WeatherDisplay:10.37,2014-02-14 09:59:00,
2014-02-14 02:04:00,54.1,50.3,30.09,SSE,148,0.0,0.0,87,0.00,OVC,,0.00,0.0,WeatherDisplay:10.37,2014-02-14 10:04:00,
2014-02-14 02:09:00,54.1,50.3,30.10,SSE,148,4.0,4.0,87,0.00,OVC,,0.00,0.0,WeatherDisplay:10.37,2014-02-14 10:09:00,
2014-02-14 02:14:00,54.1,50.3,30.09,SSE,148,0.0,0.0,87,0.00,OVC,,0.00,0.0,WeatherDisplay:10.37,2014-02-14 10:14:00,
2014-02-14 02:19:00,54.1,50.3,30.10,SSE,148,3.5,3.5,87,0.00,OVC,,0.00,0.0,WeatherDisplay:10.37,2014-02-14 10:19:00,
2014-02-14 02:24:00,54.1,50.3,30.10,SSE,148,0.0,0.0,87,0.00,OVC,,0.00,0.0,WeatherDisplay:10.37,2014-02-14 10:24:00,
2014-02-14 02:29:00,54.1,50.3,30.10,SSE,148,0.0,0.0,87,0.00,OVC,,0.00,0.0,WeatherDisplay:10.37,2014-02-14 10:29:00,
2014-02-14 02:34:00,54.2,50.4,30.09,SSE,149,0.0,0.0,87,0.00,OVC,,0.00,0.0,WeatherDisplay:10.37,2014-02-14 10:34:00,
2014-02-14 02:39:00,54.2,50.4,30.08,SSE,148,0.0,0.0,87,0.00,OVC,,0.00,0.0,WeatherDisplay:10.37,2014-02-14 10:39:00,
2014-02-14 02:44:00,54.2,50.4,30.09,SSE,148,0.0,0.0,87,0.00,OVC,,0.00,0.0,WeatherDisplay:10.37,2014-02-14 10:44:00,
2014-02-14 02:49:00,54.2,50.4,30.09,SSE,148,0.0,0.0,87,0.00,OVC,,0.00,0.0,WeatherDisplay:10.37,2014-02-14 10:49:00,
2014-02-14 02:54:00,54.3,50.5,30.09,SSE,148,0.0,0.0,87,0.00,OVC,,0.00,0.0,WeatherDisplay:10.37,2014-02-14 10:54:00,
2014-02-14 02:59:00,54.3,50.5,30.09,SSE,148,0.0,0.1,87,0.00,OVC,,0.00,0.0,WeatherDisplay:10.37,2014-02-14 10:59:00,
2014-02-14 03:04:00,54.4,50.6,30.09,SSE,148,3.5,3.5,87,0.00,,,0.00,0.0,WeatherDisplay:10.37,2014-02-14 11:04:00,
2014-02-14 03:09:00,54.3,50.5,30.09,SSE,148,1.2,0.0,87,0.00,,,0.00,0.0,WeatherDisplay:10.37,2014-02-14 11:09:00,
2014-02-14 03:14:00,54.3,50.5,30.09,SSE,148,2.3,2.3,87,0.00,,,0.00,0.0,WeatherDisplay:10.37,2014-02-14 11:14:00,
2014-02-14 03:19:00,54.3,50.5,30.09,SSE,148,3.5,3.5,87,0.00,,,0.00,0.0,WeatherDisplay:10.37,2014-02-14 11:19:00,
2014-02-14 03:24:00,54.3,50.5,30.09,SSE,148,0.0,0.0,87,0.00,,,0.00,0.0,WeatherDisplay:10.37,2014-02-14 11:24:00,
2014-02-14 03:29:00,54.3,50.5,30.09,SSE,148,3.5,3.5,87,0.00,,,0.00,0.0,WeatherDisplay:10.37,2014-02-14 11:29:00,
2014-02-14 03:34:00,54.3,50.5,30.09,SSE,148,3.5,3.5,87,0.00,,,0.00,0.0,WeatherDisplay:10.37,2014-02-14 11:34:00,
2014-02-14 03:39:00,54.2,50.4,30.09,SSE,167,2.3,2.3,87,0.00,,,0.00,0.0,WeatherDisplay:10.37,2014-02-14 11:39:00,
2014-02-14 03:44:00,54.2,50.4,30.09,SSE,155,4.6,4.6,87,0.00,OVC,,0.00,0.0,WeatherDisplay:10.37,2014-02-14 11:44:00,
2014-02-14 03:49:00,54.2,50.4,30.08,SE,130,4.6,4.6,87,0.00,OVC,,0.00,0.0,WeatherDisplay:10.37,2014-02-14 11:49:00,
2014-02-14 03:54:00,54.2,50.4,30.09,SE,132,1.2,0.0,87,0.00,OVC,,0.00,0.0,WeatherDisplay:10.37,2014-02-14 11:54:00,
2014-02-14 03:59:00,54.2,50.4,30.09,SE,134,4.0,4.0,87,0.00,OVC,,0.00,0.0,WeatherDisplay:10.37,2014-02-14 11:59:00,
2014-02-14 04:04:00,54.2,50.4,30.09,SE,136,2.3,2.3,87,0.00,OVC,,0.00,0.0,WeatherDisplay:10.37,2014-02-14 12:04:00,
2014-02-14 04:09:00,54.2,50.4,30.09,SE,136,1.2,0.0,87,0.00,OVC,,0.00,0.0,WeatherDisplay:10.37,2014-02-14 12:09:00,
2014-02-14 04:14:00,54.2,50.4,30.10,SSE,162,2.3,2.3,87,0.00,OVC,,0.00,0.0,WeatherDisplay:10.37,2014-02-14 12:14:00,
2014-02-14 04:19:00,54.2,50.4,30.10,SSE,161,1.2,0.0,87,0.00,OVC,,0.00,0.0,WeatherDisplay:10.37,2014-02-14 12:19:00,
2014-02-14 04:24:00,54.2,50.4,30.10,SSE,161,1.0,0.0,87,0.00,OVC,,0.00,0.0,WeatherDisplay:10.37,2014-02-14 12:24:00,
2014-02-14 04:29:00,54.2,50.4,30.10,SSE,161,0.0,0.0,87,0.00,OVC,,0.00,0.0,WeatherDisplay:10.37,2014-02-14 12:29:00,
2014-02-14 04:34:00,54.2,50.4,30.10,SSE,161,1.2,0.0,87,0.00,OVC,,0.00,0.0,WeatherDisplay:10.37,2014-02-14 12:34:00,
2014-02-14 04:39:00,54.2,50.4,30.10,SSE,161,0.0,0.0,87,0.00,OVC,,0.00,0.0,WeatherDisplay:10.37,2014-02-14 12:39:00,
2014-02-14 04:44:00,54.2,50.4,30.10,SSE,161,3.5,3.5,87,0.00,OVC,,0.00,0.0,WeatherDisplay:10.37,2014-02-14 12:44:00,
2014-02-14 04:49:00,54.2,50.4,30.10,SSE,161,0.0,0.0,87,0.00,OVC,,0.00,0.0,WeatherDisplay:10.37,2014-02-14 12:49:00,
2014-02-14 04:54:00,54.2,50.4,30.10,SSE,161,0.0,0.7,87,0.00,OVC,,0.00,0.0,WeatherDisplay:10.37,2014-02-14 12:54:00,
2014-02-14 04:59:00,54.2,50.4,30.11,SSE,161,1.2,0.0,87,0.00,OVC,,0.00,0.0,WeatherDisplay:10.37,2014-02-14 12:59:00,
2014-02-14 05:04:00,54.1,50.3,30.11,SSE,161,0.0,0.0,87,0.00,OVC,,0.00,0.0,WeatherDisplay:10.37,2014-02-14 13:04:00,
2014-02-14 05:09:00,54.1,50.3,30.11,SSE,161,0.0,0.0,87,0.00,OVC,,0.00,0.0,WeatherDisplay:10.37,2014-02-14 13:09:00,
2014-02-14 05:14:00,54.1,50.3,30.10,SSE,161,3.5,3.5,87,0.00,OVC,,0.00,0.0,WeatherDisplay:10.37,2014-02-14 13:14:00,
2014-02-14 05:19:00,54.1,50.3,30.10,SSE,158,0.0,0.0,87,0.00,OVC,,0.00,0.0,WeatherDisplay:10.37,2014-02-14 13:19:00,
2014-02-14 05:24:00,54.2,50.4,30.10,SSE,155,3.5,3.5,87,0.00,OVC,,0.00,0.0,WeatherDisplay:10.37,2014-02-14 13:24:00,
2014-02-14 05:29:00,54.2,50.4,30.10,SSE,155,1.2,1.7,87,0.00,OVC,,0.00,0.0,WeatherDisplay:10.37,2014-02-14 13:29:00,
2014-02-14 05:34:00,54.2,50.4,30.10,SSE,155,5.0,5.0,87,0.00,OVC,,0.00,0.0,WeatherDisplay:10.37,2014-02-14 13:34:00,
2014-02-14 05:39:00,54.2,50.4,30.10,SSE,155,1.2,0.0,87,0.00,OVC,,0.00,0.0,WeatherDisplay:10.37,2014-02-14 13:39:00,
2014-02-14 05:44:00,54.2,50.4,30.10,SSE,155,4.6,4.6,87,0.00,OVC,,0.00,0.0,WeatherDisplay:10.37,2014-02-14 13:44:00,
2014-02-14 05:49:00,54.2,50.4,30.10,SSE,151,3.5,0.0,87,0.00,OVC,,0.00,0.0,WeatherDisplay:10.37,2014-02-14 13:49:00,
2014-02-14 05:54:00,54.2,50.4,30.10,SSE,152,3.5,3.5,87,0.00,OVC,,0.00,0.0,WeatherDisplay:10.37,2014-02-14 13:54:00,
2014-02-14 06:00:00,54.2,50.4,30.11,SSE,150,4.0,4.0,87,0.00,OVC,,0.00,0.0,WeatherDisplay:10.37,2014-02-14 14:00:00,
2014-02-14 06:05:00,54.3,50.5,30.11,SSE,151,0.0,0.0,87,0.00,OVC,,0.00,0.0,WeatherDisplay:10.37,2014-02-14 14:05:00,
2014-02-14 06:10:00,54.3,50.5,30.11,SSE,151,1.2,1.2,87,0.00,OVC,,0.00,0.0,WeatherDisplay:10.37,2014-02-14 14:10:00,
2014-02-14 06:15:00,54.3,50.5,30.11,SSE,152,4.0,4.0,87,0.00,OVC,,0.00,0.0,WeatherDisplay:10.37,2014-02-14 14:15:00,
2014-02-14 06:20:00,54.3,50.5,30.11,SSE,150,0.0,0.0,87,0.00,OVC,,0.00,0.0,WeatherDisplay:10.37,2014-02-14 14:20:00,
2014-02-14 06:25:00,54.3,50.5,30.11,SSE,150,4.6,4.6,87,0.00,OVC,,0.00,0.0,WeatherDisplay:10.37,2014-02-14 14:25:00,
2014-02-14 06:30:00,54.3,50.5,30.10,SSE,150,5.8,5.8,87,0.00,OVC,,0.00,0.0,WeatherDisplay:10.37,2014-02-14 14:30:00,
2014-02-14 06:35:00,54.3,50.5,30.10,SSE,149,3.5,3.5,87,0.00,OVC,,0.00,0.0,WeatherDisplay:10.37,2014-02-14 14:35:00,
2014-02-14 06:40:00,54.4,50.6,30.11,SSE,153,3.5,4.0,87,0.00,OVC,,0.00,0.0,WeatherDisplay:10.37,2014-02-14 14:40:00,
2014-02-14 06:45:00,54.4,50.6,30.11,SSE,152,0.0,0.0,87,0.00,OVC,,0.00,0.0,WeatherDisplay:10.37,2014-02-14 14:45:00,
2014-02-14 06:50:00,54.4,50.6,30.10,SSE,152,3.5,3.5,87,0.00,OVC,,0.00,0.0,WeatherDisplay:10.37,2014-02-14 14:50:00,
2014-02-14 06:55:00,54.4,50.6,30.10,SE,142,5.8,5.8,87,0.00,OVC,,0.00,0.0,WeatherDisplay:10.37,2014-02-14 14:55:00,
2014-02-14 07:00:00,54.4,50.6,30.10,SE,142,4.6,4.6,87,0.00,OVC,,0.00,0.0,WeatherDisplay:10.37,2014-02-14 15:00:00,
2014-02-14 07:05:00,54.4,50.6,30.10,SE,143,4.6,4.6,87,0.00,OVC,,0.00,0.0,WeatherDisplay:10.37,2014-02-14 15:05:00,
2014-02-14 07:10:00,54.4,50.6,30.10,SE,142,3.5,3.5,87,0.00,OVC,,0.00,7.0,WeatherDisplay:10.37,2014-02-14 15:10:00,
2014-02-14 07:15:00,54.4,50.6,30.10,SE,142,0.0,0.1,87,0.00,OVC,,0.00,7.0,WeatherDisplay:10.37,2014-02-14 15:15:00,
2014-02-14 07:20:00,54.4,50.6,30.10,SE,142,4.6,4.6,87,0.00,OVC,,0.00,12.0,WeatherDisplay:10.37,2014-02-14 15:20:00,
2014-02-14 07:25:00,54.4,50.6,30.10,SE,142,2.3,2.3,87,0.00,OVC,,0.00,19.0,WeatherDisplay:10.37,2014-02-14 15:25:00,
2014-02-14 07:30:00,54.5,50.7,30.10,SE,142,1.2,0.0,87,0.00,OVC,,0.00,23.0,WeatherDisplay:10.37,2014-02-14 15:30:00,
2014-02-14 07:35:00,54.6,50.8,30.10,SE,142,3.5,3.5,87,0.00,OVC,,0.00,25.0,WeatherDisplay:10.37,2014-02-14 15:35:00,
2014-02-14 07:40:00,54.6,50.8,30.10,SE,141,5.8,5.8,87,0.00,OVC,,0.00,28.0,WeatherDisplay:10.37,2014-02-14 15:40:00,
2014-02-14 07:45:00,54.7,50.9,30.10,SE,141,4.6,4.6,87,0.00,OVC,,0.00,32.0,WeatherDisplay:10.37,2014-02-14 15:45:00,
2014-02-14 07:50:00,54.7,50.9,30.10,SSE,163,2.3,2.3,87,0.00,OVC,,0.00,33.0,WeatherDisplay:10.37,2014-02-14 15:50:00,
2014-02-14 07:55:00,54.8,51.0,30.10,ESE,119,4.6,4.6,87,0.00,OVC,,0.00,46.0,WeatherDisplay:10.37,2014-02-14 15:55:00,
2014-02-14 08:00:00,54.8,51.0,30.10,ESE,119,5.0,5.0,87,0.00,OVC,,0.00,54.0,WeatherDisplay:10.37,2014-02-14 16:00:00,
2014-02-14 08:05:00,54.8,51.0,30.11,ESE,119,2.3,2.3,87,0.00,OVC,,0.00,63.0,WeatherDisplay:10.37,2014-02-14 16:05:00,
2014-02-14 08:10:00,54.9,51.1,30.11,ESE,119,0.0,0.0,87,0.00,OVC,,0.00,67.0,WeatherDisplay:10.37,2014-02-14 16:10:00,
2014-02-14 08:15:00,55.0,51.2,30.11,ESE,118,0.0,0.0,87,0.00,OVC,,0.00,83.0,WeatherDisplay:10.37,2014-02-14 16:15:00,
2014-02-14 08:20:00,55.1,51.3,30.12,ESE,119,1.2,0.0,87,0.00,OVC,,0.00,107.0,WeatherDisplay:10.37,2014-02-14 16:20:00,
2014-02-14 08:25:00,55.3,51.5,30.12,ESE,119,0.0,0.0,87,0.00,OVC,,0.00,125.0,WeatherDisplay:10.37,2014-02-14 16:25:00,
2014-02-14 08:30:00,55.4,51.6,30.12,ESE,118,0.0,0.0,87,0.00,OVC,,0.00,100.0,WeatherDisplay:10.37,2014-02-14 16:30:00,
2014-02-14 08:35:00,55.5,51.7,30.12,ESE,119,0.0,0.0,87,0.00,OVC,,0.00,60.0,WeatherDisplay:10.37,2014-02-14 16:35:00,
2014-02-14 08:40:00,55.4,51.6,30.12,ESE,119,0.0,0.0,87,0.00,OVC,,0.00,81.0,WeatherDisplay:10.37,2014-02-14 16:40:00,
2014-02-14 08:45:00,55.5,51.7,30.12,SE,126,2.3,2.3,87,0.00,OVC,,0.00,141.0,WeatherDisplay:10.37,2014-02-14 16:45:00,
2014-02-14 08:50:00,55.5,51.7,30.12,SE,126,0.0,0.0,87,0.00,OVC,,0.00,218.0,WeatherDisplay:10.37,2014-02-14 16:50:00,
2014-02-14 08:55:00,55.7,51.6,30.12,SE,126,0.0,0.0,86,0.00,OVC,,0.00,171.0,WeatherDisplay:10.37,2014-02-14 16:55:00,
2014-02-14 09:00:00,55.9,51.8,30.12,SW,227,3.5,3.5,86,0.00,OVC,,0.00,88.0,WeatherDisplay:10.37,2014-02-14 17:00:00,
2014-02-14 09:05:00,55.9,51.8,30.13,SW,225,3.5,3.5,86,0.00,OVC,,0.00,128.0,WeatherDisplay:10.37,2014-02-14 17:05:00,
2014-02-14 09:10:00,56.0,51.9,30.13,WSW,238,3.5,3.5,86,0.00,OVC,,0.00,142.0,WeatherDisplay:10.37,2014-02-14 17:10:00,
2014-02-14 09:15:00,56.0,51.9,30.13,WSW,238,3.5,3.5,86,0.00,OVC,,0.00,114.0,WeatherDisplay:10.37,2014-02-14 17:15:00,
2014-02-14 09:20:00,56.1,52.0,30.13,WSW,238,0.0,0.0,86,0.00,OVC,,0.00,234.0,WeatherDisplay:10.37,2014-02-14 17:20:00,
2014-02-14 09:25:00,56.2,52.1,30.13,WSW,238,0.0,0.0,86,0.00,OVC,,0.00,188.0,WeatherDisplay:10.37,2014-02-14 17:25:00,
2014-02-14 09:30:00,56.4,52.3,30.13,WSW,237,0.0,0.0,86,0.00,OVC,,0.00,202.0,WeatherDisplay:10.37,2014-02-14 17:30:00,
2014-02-14 09:35:00,56.6,52.5,30.13,WSW,237,0.0,0.0,86,0.00,OVC,,0.00,160.0,WeatherDisplay:10.37,2014-02-14 17:35:00,
2014-02-14 09:40:00,56.9,52.8,30.14,WSW,237,0.0,0.0,86,0.00,OVC,,0.00,230.0,WeatherDisplay:10.37,2014-02-14 17:40:00,
2014-02-14 09:45:00,57.2,53.0,30.13,WSW,238,0.0,0.0,86,0.00,OVC,,0.00,257.0,WeatherDisplay:10.37,2014-02-14 17:45:00,
2014-02-14 09:50:00,57.6,53.4,30.14,WSW,237,0.0,0.0,86,0.00,OVC,,0.00,248.0,WeatherDisplay:10.37,2014-02-14 17:50:00,
2014-02-14 09:55:00,57.9,53.4,30.13,WSW,237,0.0,0.0,85,0.00,OVC,,0.00,276.0,WeatherDisplay:10.37,2014-02-14 17:55:00,
2014-02-14 10:00:00,58.1,53.6,30.13,WSW,237,0.0,0.0,85,0.00,OVC,,0.00,262.0,WeatherDisplay:10.37,2014-02-14 18:00:00,
2014-02-14 10:05:00,58.3,53.5,30.13,WSW,237,0.0,0.0,84,0.00,OVC,,0.00,186.0,WeatherDisplay:10.37,2014-02-14 18:05:00,
2014-02-14 10:10:00,58.6,53.8,30.14,WSW,253,2.3,2.3,84,0.00,OVC,,0.00,197.0,WeatherDisplay:10.37,2014-02-14 18:10:00,
2014-02-14 10:15:00,58.8,53.6,30.14,WSW,254,3.5,3.5,83,0.00,OVC,,0.00,167.0,WeatherDisplay:10.37,2014-02-14 18:15:00,
2014-02-14 10:20:00,58.9,53.7,30.14,SW,222,3.5,3.5,83,0.00,OVC,,0.00,248.0,WeatherDisplay:10.37,2014-02-14 18:20:00,
2014-02-14 10:26:00,58.7,53.5,30.14,SW,222,1.2,0.0,83,0.00,OVC,,0.00,257.0,WeatherDisplay:10.37,2014-02-14 18:26:00,
2014-02-14 10:31:00,59.0,53.5,30.13,SW,222,2.0,2.0,82,0.00,OVC,,0.00,323.0,WeatherDisplay:10.37,2014-02-14 18:31:00,
2014-02-14 10:36:00,59.0,53.5,30.14,West,279,3.5,3.5,82,0.00,OVC,,0.00,350.0,WeatherDisplay:10.37,2014-02-14 18:36:00,
2014-02-14 10:41:00,59.0,53.2,30.15,West,280,3.5,3.5,81,0.00,OVC,,0.00,292.0,WeatherDisplay:10.37,2014-02-14 18:41:00,
2014-02-14 10:46:00,59.0,53.2,30.14,West,280,0.0,0.0,81,0.00,OVC,,0.00,253.0,WeatherDisplay:10.37,2014-02-14 18:46:00,
2014-02-14 10:51:00,59.4,53.6,30.15,West,277,3.5,3.5,81,0.00,OVC,,0.00,464.0,WeatherDisplay:10.37,2014-02-14 18:51:00,
2014-02-14 10:56:00,60.1,54.2,30.14,West,271,3.5,3.5,81,0.00,OVC,,0.00,417.0,WeatherDisplay:10.37,2014-02-14 18:56:00,
2014-02-14 11:01:00,60.3,54.1,30.14,NW,317,2.3,2.3,80,0.00,OVC,,0.00,336.0,WeatherDisplay:10.37,2014-02-14 19:01:00,
2014-02-14 11:06:00,60.6,54.0,30.15,WNW,295,1.0,0.0,79,0.00,OVC,,0.00,327.0,WeatherDisplay:10.37,2014-02-14 19:06:00,
2014-02-14 11:11:00,60.7,54.1,30.15,WNW,291,3.5,3.5,79,0.00,OVC,,0.00,258.0,WeatherDisplay:10.37,2014-02-14 19:11:00,
2014-02-14 11:16:00,60.6,53.7,30.14,WNW,297,5.0,5.0,78,0.00,OVC,,0.00,255.0,WeatherDisplay:10.37,2014-02-14 19:16:00,
2014-02-14 11:21:00,60.6,53.7,30.14,SW,225,5.8,5.8,78,0.00,OVC,,0.00,329.0,WeatherDisplay:10.37,2014-02-14 19:21:00,
2014-02-14 11:26:00,60.9,54.0,30.14,WNW,302,1.2,1.2,78,0.00,OVC,,0.00,271.0,WeatherDisplay:10.37,2014-02-14 19:26:00,
2014-02-14 11:31:00,61.3,54.4,30.14,WNW,301,3.5,3.5,78,0.00,OVC,,0.00,202.0,WeatherDisplay:10.37,2014-02-14 19:31:00,
2014-02-14 11:36:00,61.5,54.6,30.13,WNW,282,3.5,3.5,78,0.00,OVC,,0.00,248.0,WeatherDisplay:10.37,2014-02-14 19:36:00,
2014-02-14 11:41:00,61.4,54.1,30.13,WNW,283,1.2,0.0,77,0.00,OVC,,0.00,183.0,WeatherDisplay:10.37,2014-02-14 19:41:00,
2014-02-14 11:46:00,61.5,54.2,30.12,WNW,283,3.5,3.5,77,0.00,OVC,,0.00,146.0,WeatherDisplay:10.37,2014-02-14 19:46:00,
2014-02-14 11:51:00,61.6,54.3,30.12,WSW,254,4.6,4.6,77,0.00,OVC,,0.00,125.0,WeatherDisplay:10.37,2014-02-14 19:51:00,
2014-02-14 11:56:00,61.4,54.1,30.12,WNW,288,4.6,4.6,77,0.00,OVC,,0.00,67.0,WeatherDisplay:10.37,2014-02-14 19:56:00,
2014-02-14 12:01:00,61.2,53.9,30.12,WNW,287,0.0,0.0,77,0.00,OVC,,0.00,58.0,WeatherDisplay:10.37,2014-02-14 20:01:00,
2014-02-14 12:06:00,61.1,53.8,30.12,NNW,337,4.6,4.6,77,0.00,OVC,,0.00,54.0,WeatherDisplay:10.37,2014-02-14 20:06:00,
2014-02-14 12:11:00,61.0,53.7,30.11,NNW,346,0.0,0.0,77,0.00,OVC,,0.00,114.0,WeatherDisplay:10.37,2014-02-14 20:11:00,
2014-02-14 12:16:00,61.1,53.8,30.11,NNW,341,3.5,3.5,77,0.00,OVC,,0.00,174.0,WeatherDisplay:10.37,2014-02-14 20:16:00,
2014-02-14 12:21:00,61.3,53.7,30.11,NNW,340,4.6,4.6,76,0.00,OVC,,0.00,227.0,WeatherDisplay:10.37,2014-02-14 20:21:00,
2014-02-14 12:26:00,61.3,53.7,30.11,NNW,328,3.5,3.5,76,0.00,OVC,,0.00,288.0,WeatherDisplay:10.37,2014-02-14 20:26:00,
2014-02-14 12:31:00,61.4,53.8,30.11,NNW,328,0.0,0.0,76,0.00,OVC,,0.00,258.0,WeatherDisplay:10.37,2014-02-14 20:31:00,
2014-02-14 12:36:00,61.8,54.2,30.11,NW,313,3.5,3.5,76,0.00,OVC,,0.00,345.0,WeatherDisplay:10.37,2014-02-14 20:36:00,
2014-02-14 12:41:00,62.2,54.2,30.10,NW,321,5.8,5.8,75,0.00,OVC,,0.00,186.0,WeatherDisplay:10.37,2014-02-14 20:41:00,
2014-02-14 12:46:00,62.3,54.3,30.10,NW,321,3.5,3.5,75,0.00,OVC,,0.00,195.0,WeatherDisplay:10.37,2014-02-14 20:46:00,
2014-02-14 12:51:00,62.4,54.4,30.10,NW,305,3.5,3.5,75,0.00,OVC,,0.00,199.0,WeatherDisplay:10.37,2014-02-14 20:51:00,
2014-02-14 12:56:00,62.3,53.9,30.10,NW,305,0.0,0.0,74,0.00,OVC,,0.00,190.0,WeatherDisplay:10.37,2014-02-14 20:56:00,
2014-02-14 13:01:00,62.5,54.1,30.09,NW,304,1.2,0.0,74,0.00,OVC,,0.00,258.0,WeatherDisplay:10.37,2014-02-14 21:01:00,
2014-02-14 13:06:00,62.6,54.2,30.09,NW,305,0.0,0.0,74,0.00,OVC,,0.00,267.0,WeatherDisplay:10.37,2014-02-14 21:06:00,
2014-02-14 13:11:00,62.8,54.0,30.09,WNW,295,3.5,3.5,73,0.00,BKN,,0.00,352.0,WeatherDisplay:10.37,2014-02-14 21:11:00,
2014-02-14 13:16:00,62.8,53.3,30.08,WSW,252,3.5,3.5,71,0.00,BKN,,0.00,373.0,WeatherDisplay:10.37,2014-02-14 21:16:00,
2014-02-14 13:21:00,63.1,53.5,30.08,West,279,4.6,4.6,71,0.00,BKN,,0.00,292.0,WeatherDisplay:10.37,2014-02-14 21:21:00,
2014-02-14 13:26:00,63.3,53.0,30.08,WSW,253,4.6,4.6,69,0.00,BKN,,0.00,411.0,WeatherDisplay:10.37,2014-02-14 21:26:00,
2014-02-14 13:31:00,63.3,53.7,30.08,WSW,247,3.0,3.0,71,0.00,BKN,,0.00,327.0,WeatherDisplay:10.37,2014-02-14 21:31:00,
2014-02-14 13:36:00,63.4,53.8,30.08,SSW,206,4.6,0.0,71,0.00,BKN,,0.00,287.0,WeatherDisplay:10.37,2014-02-14 21:36:00,
2014-02-14 13:41:00,63.4,53.4,30.08,SW,215,3.5,3.5,70,0.00,BKN,,0.00,267.0,WeatherDisplay:10.37,2014-02-14 21:41:00,
2014-02-14 13:46:00,63.5,53.5,30.07,WSW,247,6.9,6.9,70,0.00,BKN,,0.00,367.0,WeatherDisplay:10.37,2014-02-14 21:46:00,
2014-02-14 13:51:00,63.5,53.1,30.07,WSW,249,0.0,0.0,69,0.00,BKN,,0.00,283.0,WeatherDisplay:10.37,2014-02-14 21:51:00,
2014-02-14 13:56:00,63.8,53.0,30.07,WSW,255,3.5,3.5,68,0.00,BKN,,0.00,369.0,WeatherDisplay:10.37,2014-02-14 21:56:00,
2014-02-14 14:01:00,64.0,52.8,30.07,SSW,207,4.6,4.6,67,0.00,OVC,,0.00,315.0,WeatherDisplay:10.37,2014-02-14 22:01:00,
2014-02-14 14:06:00,64.1,52.9,30.07,SW,222,3.0,3.0,67,0.00,OVC,,0.00,279.0,WeatherDisplay:10.37,2014-02-14 22:06:00,
2014-02-14 14:11:00,64.2,53.0,30.06,SSW,200,4.6,4.6,67,0.00,OVC,,0.00,272.0,WeatherDisplay:10.37,2014-02-14 22:11:00,
2014-02-14 14:16:00,64.1,52.9,30.06,SSW,201,0.0,0.0,67,0.00,OVC,,0.00,239.0,WeatherDisplay:10.37,2014-02-14 22:16:00,
2014-02-14 14:21:00,64.1,53.3,30.06,SW,232,1.2,2.6,68,0.00,OVC,,0.00,341.0,WeatherDisplay:10.37,2014-02-14 22:21:00,
2014-02-14 14:26:00,64.2,53.0,30.06,SW,232,4.6,4.6,67,0.00,OVC,,0.00,287.0,WeatherDisplay:10.37,2014-02-14 22:26:00,
2014-02-14 14:31:00,64.4,53.2,30.06,SSW,211,3.5,3.5,67,0.00,OVC,,0.00,241.0,WeatherDisplay:10.37,2014-02-14 22:31:00,
2014-02-14 14:36:00,64.4,52.8,30.06,SW,221,6.9,6.9,66,0.00,OVC,,0.00,213.0,WeatherDisplay:10.37,2014-02-14 22:36:00,
2014-02-14 14:41:00,64.1,52.9,30.06,SW,218,4.6,4.6,67,0.00,OVC,,0.00,209.0,WeatherDisplay:10.37,2014-02-14 22:41:00,
2014-02-14 14:46:00,64.0,52.8,30.06,SW,214,3.5,3.5,67,0.00,OVC,,0.00,171.0,WeatherDisplay:10.37,2014-02-14 22:46:00,
2014-02-14 14:51:00,64.0,54.0,30.06,SSW,202,3.5,3.5,70,0.00,OVC,,0.00,190.0,WeatherDisplay:10.37,2014-02-14 22:51:00,
2014-02-14 14:56:00,63.9,54.7,30.06,SSW,212,7.0,7.0,72,0.00,OVC,,0.00,174.0,WeatherDisplay:10.37,2014-02-14 22:56:00,
2014-02-14 15:01:00,63.4,54.6,30.06,SSW,194,8.1,8.1,73,0.00,OVC,,0.00,213.0,WeatherDisplay:10.37,2014-02-14 23:01:00,
2014-02-14 15:06:00,63.1,54.7,30.06,SW,226,5.8,5.8,74,0.00,OVC,,0.00,190.0,WeatherDisplay:10.37,2014-02-14 23:06:00,
2014-02-14 15:11:00,62.9,54.5,30.06,SSW,205,11.5,11.5,74,0.00,BKN,,0.00,160.0,WeatherDisplay:10.37,2014-02-14 23:11:00,
2014-02-14 15:16:00,62.7,54.3,30.05,SW,225,9.0,9.0,74,0.00,BKN,,0.00,176.0,WeatherDisplay:10.37,2014-02-14 23:16:00,
2014-02-14 15:21:00,62.7,54.3,30.05,South,185,8.1,8.1,74,0.00,BKN,,0.00,158.0,WeatherDisplay:10.37,2014-02-14 23:21:00,
2014-02-14 15:26:00,62.7,54.3,30.05,SW,232,9.2,9.2,74,0.00,BKN,,0.00,186.0,WeatherDisplay:10.37,2014-02-14 23:26:00,
2014-02-14 15:31:00,62.5,54.1,30.05,SW,235,6.9,6.9,74,0.00,BKN,,0.00,153.0,WeatherDisplay:10.37,2014-02-14 23:31:00,
2014-02-14 15:36:00,62.4,54.0,30.05,SW,232,6.9,6.9,74,0.00,BKN,,0.00,148.0,WeatherDisplay:10.37,2014-02-14 23:36:00,
2014-02-14 15:41:00,62.4,54.0,30.05,SW,215,8.1,8.1,74,0.00,BKN,,0.00,149.0,WeatherDisplay:10.37,2014-02-14 23:41:00,
2014-02-14 15:46:00,62.4,54.0,30.05,SW,235,6.9,6.9,74,0.00,BKN,,0.00,153.0,WeatherDisplay:10.37,2014-02-14 23:46:00,
2014-02-14 15:51:00,62.3,53.9,30.05,SW,234,5.8,0.0,74,0.00,BKN,,0.00,60.0,WeatherDisplay:10.37,2014-02-14 23:51:00,
2014-02-14 15:56:00,62.3,53.9,30.05,SSW,205,3.5,3.5,74,0.00,BKN,,0.00,105.0,WeatherDisplay:10.37,2014-02-14 23:56:00,
2014-02-14 16:01:00,62.2,53.8,30.05,SSW,213,4.0,4.0,74,0.00,BKN,,0.00,118.0,WeatherDisplay:10.37,2014-02-15 00:01:00,
2014-02-14 16:06:00,62.1,53.7,30.05,SSW,209,6.9,6.9,74,0.00,BKN,,0.00,102.0,WeatherDisplay:10.37,2014-02-15 00:06:00,
2014-02-14 16:11:00,61.9,53.5,30.04,WSW,241,5.8,5.8,74,0.00,BKN,,0.00,100.0,WeatherDisplay:10.37,2014-02-15 00:11:00,
2014-02-14 16:16:00,61.9,53.5,30.05,SW,232,4.6,4.8,74,0.00,BKN,,0.00,104.0,WeatherDisplay:10.37,2014-02-15 00:16:00,
2014-02-14 16:21:00,61.8,53.1,30.05,West,268,5.8,5.8,73,0.00,BKN,,0.00,100.0,WeatherDisplay:10.37,2014-02-15 00:21:00,
2014-02-14 16:26:00,61.8,52.7,30.04,SSW,206,6.9,6.9,72,0.00,BKN,,0.00,65.0,WeatherDisplay:10.37,2014-02-15 00:26:00,
2014-02-14 16:31:00,61.8,52.7,30.04,WSW,241,4.6,4.6,72,0.00,BKN,,0.00,53.0,WeatherDisplay:10.37,2014-02-15 00:31:00,
2014-02-14 16:36:00,61.7,53.0,30.04,SW,222,5.0,5.0,73,0.00,BKN,,0.00,93.0,WeatherDisplay:10.37,2014-02-15 00:36:00,
2014-02-14 16:37:00,61.7,53.0,30.04,SW,236,5.8,5.8,73,0.00,BKN,,0.00,95.0,WeatherDisplay:10.37,2014-02-15 00:37:00,
2014-02-14 16:42:00,61.7,53.0,30.04,SSW,209,5.8,5.8,73,0.00,BKN,,0.00,95.0,WeatherDisplay:10.37,2014-02-15 00:42:00,
2014-02-14 16:47:00,61.6,53.2,30.04,SSW,204,4.6,4.6,74,0.00,BKN,,0.00,83.0,WeatherDisplay:10.37,2014-02-15 00:47:00,
2014-02-14 16:52:00,61.5,53.1,30.04,SSW,211,5.8,5.8,74,0.00,BKN,,0.00,49.0,WeatherDisplay:10.37,2014-02-15 00:52:00,
2014-02-14 16:57:00,61.3,52.9,30.03,SW,236,4.6,4.6,74,0.00,BKN,,0.00,39.0,WeatherDisplay:10.37,2014-02-15 00:57:00,
2014-02-14 17:02:00,61.3,52.9,30.03,SW,236,0.0,0.5,74,0.00,OVC,,0.00,30.0,WeatherDisplay:10.37,2014-02-15 01:02:00,
2014-02-14 17:07:00,61.2,52.8,30.03,SW,236,3.5,0.0,74,0.00,OVC,,0.00,28.0,WeatherDisplay:10.37,2014-02-15 01:07:00,
2014-02-14 17:12:00,61.2,52.8,30.03,SSW,193,5.8,5.8,74,0.00,OVC,,0.00,39.0,WeatherDisplay:10.37,2014-02-15 01:12:00,
2014-02-14 17:17:00,61.2,52.8,30.03,SW,214,1.2,1.2,74,0.00,OVC,,0.00,35.0,WeatherDisplay:10.37,2014-02-15 01:17:00,
2014-02-14 17:22:00,61.1,52.7,30.03,SW,214,3.5,0.0,74,0.00,OVC,,0.00,25.0,WeatherDisplay:10.37,2014-02-15 01:22:00,
2014-02-14 17:27:00,61.1,52.7,30.04,SW,219,4.6,4.6,74,0.00,OVC,,0.00,23.0,WeatherDisplay:10.37,2014-02-15 01:27:00,
2014-02-14 17:32:00,61.1,52.4,30.04,SSW,209,4.6,4.6,73,0.00,OVC,,0.00,16.0,WeatherDisplay:10.37,2014-02-15 01:32:00,
2014-02-14 17:37:00,60.9,52.6,30.03,WSW,240,1.2,1.2,74,0.00,OVC,,0.00,9.0,WeatherDisplay:10.37,2014-02-15 01:37:00,
2014-02-14 17:42:00,60.8,52.5,30.03,WSW,246,2.3,2.3,74,0.00,OVC,,0.00,0.0,WeatherDisplay:10.37,2014-02-15 01:42:00,
2014-02-14 17:47:00,60.7,52.4,30.02,WSW,246,3.0,3.0,74,0.00,OVC,,0.00,0.0,WeatherDisplay:10.37,2014-02-15 01:47:00,
2014-02-14 17:52:00,60.5,52.2,30.03,SW,215,3.5,3.5,74,0.00,OVC,,0.00,0.0,WeatherDisplay:10.37,2014-02-15 01:52:00,
2014-02-14 17:57:00,60.4,52.1,30.02,SW,215,1.2,0.0,74,0.00,OVC,,0.00,0.0,WeatherDisplay:10.37,2014-02-15 01:57:00,
2014-02-14 18:02:00,60.4,52.4,30.02,SW,214,0.0,0.1,75,0.00,OVC,,0.00,0.0,WeatherDisplay:10.37,2014-02-15 02:02:00,
2014-02-14 18:07:00,60.4,52.4,30.03,SW,214,3.5,3.5,75,0.00,OVC,,0.00,0.0,WeatherDisplay:10.37,2014-02-15 02:07:00,
2014-02-14 18:12:00,60.3,52.3,30.02,SW,215,2.3,0.0,75,0.00,OVC,,0.00,0.0,WeatherDisplay:10.37,2014-02-15 02:12:00,
2014-02-14 18:18:00,60.2,52.2,30.02,SW,214,0.0,0.0,75,0.00,OVC,,0.00,0.0,WeatherDisplay:10.37,2014-02-15 02:18:00,
2014-02-14 18:23:00,60.2,52.2,30.02,SW,215,2.3,0.0,75,0.00,OVC,,0.00,0.0,WeatherDisplay:10.37,2014-02-15 02:23:00,
2014-02-14 18:28:00,60.2,52.2,30.03,SW,215,0.0,0.0,75,0.00,OVC,,0.00,0.0,WeatherDisplay:10.37,2014-02-15 02:28:00,
2014-02-14 18:33:00,60.1,52.1,30.02,SSW,207,3.5,0.0,75,0.00,OVC,,0.00,0.0,WeatherDisplay:10.37,2014-02-15 02:33:00,
2014-02-14 18:38:00,60.0,52.1,30.02,SSW,209,2.3,2.3,75,0.00,OVC,,0.00,0.0,WeatherDisplay:10.37,2014-02-15 02:38:00,
2014-02-14 18:43:00,59.9,52.0,30.03,SSW,198,5.0,5.0,75,0.00,OVC,,0.00,0.0,WeatherDisplay:10.37,2014-02-15 02:43:00,
2014-02-14 18:48:00,59.9,52.0,30.03,SW,228,3.5,3.5,75,0.00,OVC,,0.00,0.0,WeatherDisplay:10.37,2014-02-15 02:48:00,
2014-02-14 18:53:00,59.8,51.9,30.02,SW,227,2.3,2.3,75,0.00,OVC,,0.00,0.0,WeatherDisplay:10.37,2014-02-15 02:53:00,
2014-02-14 18:58:00,59.7,52.1,30.03,SW,226,0.0,0.0,76,0.00,OVC,,0.00,0.0,WeatherDisplay:10.37,2014-02-15 02:58:00,
2014-02-14 19:03:00,59.7,52.1,30.02,SW,226,0.0,0.0,76,0.00,OVC,,0.00,0.0,WeatherDisplay:10.37,2014-02-15 03:03:00,
2014-02-14 19:08:00,59.6,52.0,30.03,SW,227,0.0,0.0,76,0.00,OVC,,0.00,0.0,WeatherDisplay:10.37,2014-02-15 03:08:00,
2014-02-14 19:13:00,59.6,52.0,30.03,SW,226,0.0,0.0,76,0.00,OVC,,0.00,0.0,WeatherDisplay:10.37,2014-02-15 03:13:00,
2014-02-14 19:18:00,59.5,51.9,30.03,SW,226,1.2,0.0,76,0.00,OVC,,0.00,0.0,WeatherDisplay:10.37,2014-02-15 03:18:00,
2014-02-14 19:23:00,59.4,51.8,30.03,SW,226,0.0,0.0,76,0.00,OVC,,0.00,0.0,WeatherDisplay:10.37,2014-02-15 03:23:00,
2014-02-14 19:28:00,59.3,51.7,30.03,SW,226,1.2,0.0,76,0.00,OVC,,0.00,0.0,WeatherDisplay:10.37,2014-02-15 03:28:00,
2014-02-14 19:33:00,59.1,51.5,30.03,SW,226,0.0,0.0,76,0.00,OVC,,0.00,0.0,WeatherDisplay:10.37,2014-02-15 03:33:00,
2014-02-14 19:38:00,59.0,51.4,30.03,SW,226,2.3,2.3,76,0.00,OVC,,0.00,0.0,WeatherDisplay:10.37,2014-02-15 03:38:00,
2014-02-14 19:43:00,59.0,51.8,30.03,SW,226,0.0,0.0,77,0.00,OVC,,0.00,0.0,WeatherDisplay:10.37,2014-02-15 03:43:00,
2014-02-14 19:48:00,59.0,51.8,30.03,SW,226,0.0,0.0,77,0.00,OVC,,0.00,0.0,WeatherDisplay:10.37,2014-02-15 03:48:00,
2014-02-14 19:53:00,59.0,51.8,30.03,SW,226,3.5,3.5,77,0.00,OVC,,0.00,0.0,WeatherDisplay:10.37,2014-02-15 03:53:00,
2014-02-14 19:58:00,59.0,51.8,30.04,SW,226,0.0,0.0,77,0.00,OVC,,0.00,0.0,WeatherDisplay:10.37,2014-02-15 03:58:00,
2014-02-14 20:03:00,59.0,51.8,30.04,SW,226,0.0,0.0,77,0.00,OVC,,0.00,0.0,WeatherDisplay:10.37,2014-02-15 04:03:00,
2014-02-14 20:08:00,59.0,51.8,30.04,SW,226,2.3,2.3,77,0.00,OVC,,0.00,0.0,WeatherDisplay:10.37,2014-02-15 04:08:00,
2014-02-14 20:13:00,58.9,51.7,30.04,SW,226,0.0,0.0,77,0.00,OVC,,0.00,0.0,WeatherDisplay:10.37,2014-02-15 04:13:00,
2014-02-14 20:18:00,58.7,51.9,30.04,SW,226,2.3,0.0,78,0.00,OVC,,0.00,0.0,WeatherDisplay:10.37,2014-02-15 04:18:00,
2014-02-14 20:23:00,58.5,51.7,30.04,SW,226,2.3,0.0,78,0.00,OVC,,0.00,0.0,WeatherDisplay:10.37,2014-02-15 04:23:00,
2014-02-14 20:28:00,58.5,51.7,30.04,SW,226,0.0,0.0,78,0.00,OVC,,0.00,0.0,WeatherDisplay:10.37,2014-02-15 04:28:00,
2014-02-14 20:33:00,58.4,51.6,30.04,SW,226,0.0,0.0,78,0.00,OVC,,0.00,0.0,WeatherDisplay:10.37,2014-02-15 04:33:00,
2014-02-14 20:38:00,58.4,51.6,30.03,SW,226,0.0,0.0,78,0.00,OVC,,0.00,0.0,WeatherDisplay:10.37,2014-02-15 04:38:00,
2014-02-14 20:43:00,58.3,51.5,30.03,SW,226,0.0,0.0,78,0.00,OVC,,0.00,0.0,WeatherDisplay:10.37,2014-02-15 04:43:00,
2014-02-14 20:48:00,58.3,51.5,30.03,SW,226,0.0,0.0,78,0.00,OVC,,0.00,0.0,WeatherDisplay:10.37,2014-02-15 04:48:00,
2014-02-14 20:53:00,58.3,51.5,30.03,SW,226,0.0,0.0,78,0.00,OVC,,0.00,0.0,WeatherDisplay:10.37,2014-02-15 04:53:00,
2014-02-14 20:58:00,58.3,51.5,30.03,SW,226,0.0,0.0,78,0.00,OVC,,0.00,0.0,WeatherDisplay:10.37,2014-02-15 04:58:00,
2014-02-14 21:01:00,58.2,51.4,30.03,SW,226,2.3,2.3,78,0.00,OVC,,0.00,0.0,WeatherDisplay:10.37,2014-02-15 05:01:00,
2014-02-14 21:06:00,58.2,51.4,30.03,SW,226,2.3,2.3,78,0.00,OVC,,0.00,0.0,WeatherDisplay:10.37,2014-02-15 05:06:00,
2014-02-14 21:11:00,58.2,51.4,30.03,SW,226,0.0,0.0,78,0.00,OVC,,0.00,0.0,WeatherDisplay:10.37,2014-02-15 05:11:00,
2014-02-14 21:16:00,58.2,51.4,30.04,SW,226,2.3,2.3,78,0.00,OVC,,0.00,0.0,WeatherDisplay:10.37,2014-02-15 05:16:00,
2014-02-14 21:20:00,58.2,51.4,30.04,SW,226,0.0,0.0,78,0.00,OVC,,0.00,0.0,WeatherDisplay:10.37,2014-02-15 05:20:00,
2014-02-14 21:25:00,58.1,51.3,30.03,SW,226,0.0,0.0,78,0.00,OVC,,0.00,0.0,WeatherDisplay:10.37,2014-02-15 05:25:00,
2014-02-14 21:30:00,58.1,51.3,30.03,SW,227,0.0,0.0,78,0.00,OVC,,0.00,0.0,WeatherDisplay:10.37,2014-02-15 05:30:00,
2014-02-14 21:35:00,58.0,51.2,30.03,SW,226,1.0,0.0,78,0.00,OVC,,0.00,0.0,WeatherDisplay:10.37,2014-02-15 05:35:00,
2014-02-14 21:40:00,57.8,51.0,30.03,SE,146,1.2,0.0,78,0.00,OVC,,0.00,0.0,WeatherDisplay:10.37,2014-02-15 05:40:00,
2014-02-14 21:45:00,57.7,51.2,30.03,SE,146,0.0,0.0,79,0.00,OVC,,0.00,0.0,WeatherDisplay:10.37,2014-02-15 05:45:00,
2014-02-14 21:50:00,57.5,51.0,30.03,SSE,149,2.3,2.3,79,0.00,OVC,,0.00,0.0,WeatherDisplay:10.37,2014-02-15 05:50:00,
2014-02-14 21:55:00,57.4,50.9,30.03,SSE,149,0.0,0.0,79,0.00,OVC,,0.00,0.0,WeatherDisplay:10.37,2014-02-15 05:55:00,
2014-02-14 22:00:00,57.2,50.7,30.03,SSE,150,0.0,0.0,79,0.00,OVC,,0.00,0.0,WeatherDisplay:10.37,2014-02-15 06:00:00,
2014-02-14 22:05:00,57.2,51.1,30.03,SSE,149,0.0,0.0,80,0.00,OVC,,0.00,0.0,WeatherDisplay:10.37,2014-02-15 06:05:00,
2014-02-14 22:10:00,57.1,51.0,30.03,SSE,150,0.0,0.0,80,0.00,OVC,,0.00,0.0,WeatherDisplay:10.37,2014-02-15 06:10:00,
2014-02-14 22:15:00,57.0,50.9,30.03,SSE,150,1.2,0.0,80,0.00,OVC,,0.00,0.0,WeatherDisplay:10.37,2014-02-15 06:15:00,
2014-02-14 22:20:00,56.9,50.8,30.03,SSE,150,0.0,0.0,80,0.00,OVC,,0.00,0.0,WeatherDisplay:10.37,2014-02-15 06:20:00,
2014-02-14 22:25:00,56.9,50.8,30.03,SSE,149,0.0,0.0,80,0.00,OVC,,0.00,0.0,WeatherDisplay:10.37,2014-02-15 06:25:00,
2014-02-14 22:30:00,56.8,50.7,30.03,SSE,150,0.0,0.0,80,0.00,OVC,,0.00,0.0,WeatherDisplay:10.37,2014-02-15 06:30:00,
2014-02-14 22:35:00,56.8,50.7,30.03,SSE,149,0.0,0.0,80,0.00,OVC,,0.00,0.0,WeatherDisplay:10.37,2014-02-15 06:35:00,
2014-02-14 22:40:00,56.8,50.7,30.03,SSE,150,0.0,0.0,80,0.00,OVC,,0.00,0.0,WeatherDisplay:10.37,2014-02-15 06:40:00,
2014-02-14 22:45:00,56.8,50.7,30.03,SSE,150,0.0,0.0,80,0.00,OVC,,0.00,0.0,WeatherDisplay:10.37,2014-02-15 06:45:00,
2014-02-14 22:50:00,56.8,50.7,30.03,SSE,149,0.0,0.0,80,0.00,OVC,,0.00,0.0,WeatherDisplay:10.37,2014-02-15 06:50:00,
2014-02-14 22:55:00,56.8,50.7,30.03,SSE,150,0.0,0.0,80,0.00,OVC,,0.00,0.0,WeatherDisplay:10.37,2014-02-15 06:55:00,
2014-02-14 23:00:00,56.9,50.8,30.02,SSE,150,0.0,0.0,80,0.00,OVC,,0.00,0.0,WeatherDisplay:10.37,2014-02-15 07:00:00,
2014-02-14 23:05:00,56.9,50.8,30.02,SSE,150,0.0,0.0,80,0.00,OVC,,0.00,0.0,WeatherDisplay:10.37,2014-02-15 07:05:00,
2014-02-14 23:10:00,56.9,50.8,30.03,SSE,150,0.0,0.0,80,0.00,OVC,,0.00,0.0,WeatherDisplay:10.37,2014-02-15 07:10:00,
2014-02-14 23:15:00,56.9,50.8,30.03,SSE,149,0.0,0.0,80,0.00,OVC,,0.00,0.0,WeatherDisplay:10.37,2014-02-15 07:15:00,
2014-02-14 23:20:00,56.9,50.8,30.03,SSE,149,0.0,0.0,80,0.00,OVC,,0.00,0.0,WeatherDisplay:10.37,2014-02-15 07:20:00,
2014-02-14 23:25:00,56.9,50.8,30.03,SSE,150,0.0,0.0,80,0.00,OVC,,0.00,0.0,WeatherDisplay:10.37,2014-02-15 07:25:00,
2014-02-14 23:30:00,56.9,50.8,30.03,SSE,149,0.0,0.0,80,0.00,OVC,,0.00,0.0,WeatherDisplay:10.37,2014-02-15 07:30:00,
2014-02-14 23:35:00,56.9,50.8,30.03,SSE,150,0.0,0.0,80,0.00,OVC,,0.00,0.0,WeatherDisplay:10.37,2014-02-15 07:35:00,
2014-02-14 23:40:00,57.0,50.9,30.03,SSE,150,0.0,0.0,80,0.00,OVC,,0.00,0.0,WeatherDisplay:10.37,2014-02-15 07:40:00,
2014-02-14 23:45:00,57.0,50.9,30.02,SSE,150,0.0,0.0,80,0.00,OVC,,0.00,0.0,WeatherDisplay:10.37,2014-02-15 07:45:00,
2014-02-14 23:50:00,57.0,51.2,30.02,SSE,150,0.0,0.0,81,0.00,OVC,,0.00,0.0,WeatherDisplay:10.37,2014-02-15 07:50:00,
2014-02-14 23:55:00,57.0,51.2,30.02,SSE,149,0.0,0.0,81,0.00,OVC,,0.00,0.0,WeatherDisplay:10.37,2014-02-15 07:55:00,